Time,TemperatureF,DewpointF,PressureIn,WindDirection,WindDirectionDegrees,WindSpeedMPH,WindSpeedGustMPH,Humidity,HourlyPrecipIn,Conditions,Clouds,dailyrainin,SoftwareType,DateUTC
2013-07-29 00:00:00,52.2,49.3,29.94,NNW,338,0.0,0.0,90,0.00,,---,0.00,VWS V14.01,2013-07-29 07:00:00,
2013-07-29 00:05:00,52.2,49.3,29.94,NNW,338,3.4,3.4,90,0.00,,---,0.00,VWS V14.01,2013-07-29 07:05:00,
2013-07-29 00:10:00,52.0,49.1,29.94,NNW,338,1.6,3.4,90,0.00,,---,0.00,VWS V14.01,2013-07-29 07:10:00,
2013-07-29 00:15:00,51.8,49.3,29.94,WNW,292,0.0,2.0,91,0.00,,---,0.00,VWS V14.01,2013-07-29 07:15:00,
2013-07-29 00:20:00,51.8,49.3,29.94,ENE,68,0.0,0.0,91,0.00,,---,0.00,VWS V14.01,2013-07-29 07:20:00,
2013-07-29 00:25:00,51.6,49.1,29.94,NNW,338,0.0,1.3,91,0.00,,---,0.00,VWS V14.01,2013-07-29 07:25:00,
2013-07-29 00:30:00,51.6,49.1,29.94,NNW,338,0.9,2.2,91,0.00,,---,0.00,VWS V14.01,2013-07-29 07:30:00,
2013-07-29 00:35:00,51.6,49.1,29.94,NNW,338,2.0,2.5,91,0.00,,---,0.00,VWS V14.01,2013-07-29 07:35:00,
2013-07-29 00:40:00,51.6,49.1,29.94,NNW,338,0.0,0.0,91,0.00,,---,0.00,VWS V14.01,2013-07-29 07:40:00,
2013-07-29 00:45:00,51.6,49.4,29.94,NW,315,1.1,1.1,92,0.00,,---,0.00,VWS V14.01,2013-07-29 07:45:00,
2013-07-29 00:50:00,51.6,49.4,29.94,NNW,338,1.1,3.4,92,0.00,,---,0.00,VWS V14.01,2013-07-29 07:50:00,
2013-07-29 00:56:00,51.6,49.4,29.94,NNW,338,2.7,3.4,92,0.00,,---,0.00,VWS V14.01,2013-07-29 07:56:00,
2013-07-29 01:00:00,51.6,49.4,29.94,WNW,292,3.8,3.8,92,0.00,,---,0.00,VWS V14.01,2013-07-29 08:00:00,
2013-07-29 01:01:00,51.6,49.4,29.94,NNW,338,2.9,3.8,92,0.00,,---,0.00,VWS V14.01,2013-07-29 08:01:00,
2013-07-29 01:06:00,51.4,48.9,29.94,NNW,338,2.7,3.8,91,0.00,,---,0.00,VWS V14.01,2013-07-29 08:06:00,
2013-07-29 01:10:00,51.4,48.9,29.94,WNW,292,2.5,3.8,91,0.00,,---,0.00,VWS V14.01,2013-07-29 08:10:00,
2013-07-29 01:11:00,51.4,48.9,29.94,NNW,338,3.6,3.6,91,0.00,,---,0.00,VWS V14.01,2013-07-29 08:11:00,
2013-07-29 01:17:00,51.3,49.0,29.94,North,0,2.9,5.4,92,0.00,,---,0.00,VWS V14.01,2013-07-29 08:17:00,
2013-07-29 01:20:00,51.3,49.0,29.94,NNW,338,0.0,5.4,92,0.00,,---,0.00,VWS V14.01,2013-07-29 08:20:00,
2013-07-29 01:22:00,51.3,49.0,29.94,NNW,338,0.9,1.6,92,0.00,,---,0.00,VWS V14.01,2013-07-29 08:22:00,
2013-07-29 01:27:00,51.3,49.0,29.94,NNW,338,0.0,2.5,92,0.00,,---,0.00,VWS V14.01,2013-07-29 08:27:00,
2013-07-29 01:30:00,51.3,49.0,29.94,NW,315,2.5,3.1,92,0.00,,---,0.00,VWS V14.01,2013-07-29 08:30:00,
2013-07-29 01:32:00,51.3,49.0,29.94,NW,315,2.2,4.0,92,0.00,,---,0.00,VWS V14.01,2013-07-29 08:32:00,
2013-07-29 01:37:00,51.3,49.0,29.94,NW,315,1.6,4.0,92,0.00,,---,0.00,VWS V14.01,2013-07-29 08:37:00,
2013-07-29 01:40:00,51.3,49.0,29.94,NNW,338,1.1,4.0,92,0.00,,---,0.00,VWS V14.01,2013-07-29 08:40:00,
2013-07-29 01:42:00,51.3,49.0,29.94,WNW,292,1.1,1.1,92,0.00,,---,0.00,VWS V14.01,2013-07-29 08:42:00,
2013-07-29 01:47:00,51.3,49.0,29.94,NW,315,0.0,3.4,92,0.00,,---,0.00,VWS V14.01,2013-07-29 08:47:00,
2013-07-29 01:50:00,51.1,48.8,29.94,WNW,292,2.2,3.4,92,0.00,,---,0.00,VWS V14.01,2013-07-29 08:50:00,
2013-07-29 01:52:00,51.1,49.1,29.94,WNW,292,1.1,2.7,93,0.00,,---,0.00,VWS V14.01,2013-07-29 08:52:00,
2013-07-29 01:53:00,51.1,49.1,29.94,WNW,292,2.0,2.7,93,0.00,,---,0.00,VWS V14.01,2013-07-29 08:53:00,
2013-07-29 01:58:00,51.1,49.1,29.94,NNW,338,4.0,4.0,93,0.00,,---,0.00,VWS V14.01,2013-07-29 08:58:00,
2013-07-29 02:00:00,51.1,49.1,29.94,NW,315,2.9,4.0,93,0.00,,---,0.00,VWS V14.01,2013-07-29 09:00:00,
2013-07-29 02:03:00,50.9,49.0,29.94,NW,315,3.1,3.4,93,0.00,,---,0.00,VWS V14.01,2013-07-29 09:03:00,
2013-07-29 02:08:00,50.9,49.0,29.94,WNW,292,1.1,3.8,93,0.00,,---,0.00,VWS V14.01,2013-07-29 09:08:00,
2013-07-29 02:10:00,50.9,49.0,29.94,NW,315,2.9,3.8,93,0.00,,---,0.00,VWS V14.01,2013-07-29 09:10:00,
2013-07-29 02:14:00,50.9,49.0,29.94,WNW,292,2.5,2.9,93,0.00,,---,0.00,VWS V14.01,2013-07-29 09:14:00,
2013-07-29 02:19:00,50.9,49.0,29.94,NNW,338,2.5,2.9,93,0.00,,---,0.00,VWS V14.01,2013-07-29 09:19:00,
2013-07-29 02:20:00,50.9,49.0,29.94,North,0,1.6,2.9,93,0.00,,---,0.00,VWS V14.01,2013-07-29 09:20:00,
2013-07-29 02:24:00,51.1,49.1,29.94,WNW,292,2.9,3.1,93,0.00,,---,0.00,VWS V14.01,2013-07-29 09:24:00,
2013-07-29 02:29:00,51.3,49.6,29.94,NNW,338,2.0,3.1,94,0.00,,---,0.00,VWS V14.01,2013-07-29 09:29:00,
2013-07-29 02:30:00,51.3,49.6,29.94,NNW,338,2.0,3.1,94,0.00,,---,0.00,VWS V14.01,2013-07-29 09:30:00,
2013-07-29 02:34:00,51.3,49.6,29.94,NNW,338,3.6,3.6,94,0.00,,---,0.00,VWS V14.01,2013-07-29 09:34:00,
2013-07-29 02:39:00,51.4,49.8,29.94,NNW,338,3.1,4.0,94,0.00,,---,0.00,VWS V14.01,2013-07-29 09:39:00,
2013-07-29 02:40:00,51.4,49.8,29.94,NNW,338,3.1,4.0,94,0.00,,---,0.00,VWS V14.01,2013-07-29 09:40:00,
2013-07-29 02:44:00,51.4,49.8,29.94,NW,315,2.9,3.1,94,0.00,,---,0.00,VWS V14.01,2013-07-29 09:44:00,
2013-07-29 02:49:00,51.6,50.0,29.94,NW,315,0.9,3.1,94,0.00,,---,0.00,VWS V14.01,2013-07-29 09:49:00,
2013-07-29 02:50:00,51.6,50.0,29.94,NW,315,0.9,3.1,94,0.00,,---,0.00,VWS V14.01,2013-07-29 09:50:00,
2013-07-29 02:55:00,51.6,50.0,29.94,NNW,338,1.1,1.1,94,0.00,,---,0.00,VWS V14.01,2013-07-29 09:55:00,
2013-07-29 03:00:00,51.8,50.1,29.94,NW,315,3.6,4.7,94,0.00,,---,0.00,VWS V14.01,2013-07-29 10:00:00,
2013-07-29 03:05:00,51.6,50.0,29.94,WNW,292,2.5,3.6,94,0.00,,---,0.00,VWS V14.01,2013-07-29 10:05:00,
2013-07-29 03:10:00,51.4,50.1,29.94,NNW,338,4.3,4.3,95,0.00,,---,0.00,VWS V14.01,2013-07-29 10:10:00,
2013-07-29 03:16:00,51.1,49.7,29.94,WNW,292,2.7,5.8,95,0.00,,---,0.00,VWS V14.01,2013-07-29 10:16:00,
2013-07-29 03:20:00,50.9,49.5,29.94,NNW,338,4.7,5.8,95,0.00,,---,0.00,VWS V14.01,2013-07-29 10:20:00,
2013-07-29 03:21:00,50.9,49.5,29.94,WNW,292,4.9,4.9,95,0.00,,---,0.00,VWS V14.01,2013-07-29 10:21:00,
2013-07-29 03:27:00,50.7,49.3,29.94,NW,315,2.5,4.9,95,0.00,,---,0.00,VWS V14.01,2013-07-29 10:27:00,
2013-07-29 03:30:00,50.5,49.2,29.94,NW,315,5.6,5.6,95,0.00,,---,0.00,VWS V14.01,2013-07-29 10:30:00,
2013-07-29 03:32:00,50.4,49.0,29.94,NW,315,5.4,5.6,95,0.00,,---,0.00,VWS V14.01,2013-07-29 10:32:00,
2013-07-29 03:38:00,50.2,48.8,29.94,NNW,338,0.9,5.6,95,0.00,,---,0.00,VWS V14.01,2013-07-29 10:38:00,
2013-07-29 03:40:00,50.2,48.8,29.94,NW,315,2.9,5.6,95,0.00,,---,0.00,VWS V14.01,2013-07-29 10:40:00,
2013-07-29 03:43:00,50.2,49.1,29.94,NNW,338,3.1,3.1,96,0.00,,---,0.00,VWS V14.01,2013-07-29 10:43:00,
2013-07-29 03:48:00,50.2,49.1,29.94,NW,315,0.0,3.1,96,0.00,,---,0.00,VWS V14.01,2013-07-29 10:48:00,
2013-07-29 03:50:00,50.2,49.1,29.94,WNW,292,0.0,3.1,96,0.00,,---,0.00,VWS V14.01,2013-07-29 10:50:00,
2013-07-29 03:54:00,50.2,48.8,29.94,WNW,292,0.9,2.2,95,0.00,,---,0.00,VWS V14.01,2013-07-29 10:54:00,
2013-07-29 03:59:00,50.2,49.1,29.94,NW,315,0.0,2.2,96,0.00,,---,0.00,VWS V14.01,2013-07-29 10:59:00,
2013-07-29 04:00:00,50.2,49.1,29.94,NW,315,0.0,2.2,96,0.00,,---,0.00,VWS V14.01,2013-07-29 11:00:00,
2013-07-29 04:04:00,50.2,49.1,29.94,NW,315,0.0,0.0,96,0.00,,---,0.00,VWS V14.01,2013-07-29 11:04:00,
2013-07-29 04:09:00,50.2,49.1,29.94,NW,315,0.0,0.0,96,0.00,,---,0.00,VWS V14.01,2013-07-29 11:09:00,
2013-07-29 04:10:00,50.2,49.1,29.94,NW,315,0.0,0.0,96,0.00,,---,0.00,VWS V14.01,2013-07-29 11:10:00,
2013-07-29 04:14:00,50.2,49.1,29.94,NW,315,0.0,0.0,96,0.00,,---,0.00,VWS V14.01,2013-07-29 11:14:00,
2013-07-29 04:20:00,50.2,49.1,29.94,NW,315,0.0,0.0,96,0.00,,---,0.00,VWS V14.01,2013-07-29 11:20:00,
2013-07-29 04:25:00,50.2,49.1,29.94,NW,315,0.0,0.0,96,0.00,,---,0.00,VWS V14.01,2013-07-29 11:25:00,
2013-07-29 04:30:00,50.0,48.9,29.94,WSW,248,0.0,0.0,96,0.00,,---,0.00,VWS V14.01,2013-07-29 11:30:00,
2013-07-29 04:35:00,49.6,48.5,29.94,West,270,0.0,0.9,96,0.00,,---,0.00,VWS V14.01,2013-07-29 11:35:00,
2013-07-29 04:40:00,49.5,48.4,29.94,West,270,0.0,0.0,96,0.00,,---,0.00,VWS V14.01,2013-07-29 11:40:00,
2013-07-29 04:46:00,49.3,48.2,29.94,WNW,292,0.0,0.0,96,0.00,,---,0.00,VWS V14.01,2013-07-29 11:46:00,
2013-07-29 04:50:00,49.1,48.0,29.94,WNW,292,0.0,0.0,96,0.00,,---,0.00,VWS V14.01,2013-07-29 11:50:00,
2013-07-29 04:52:00,48.7,47.7,29.94,NNW,338,0.0,2.5,96,0.00,,---,0.00,VWS V14.01,2013-07-29 11:52:00,
2013-07-29 04:58:00,48.7,47.7,29.94,NW,315,0.0,2.5,96,0.00,,---,0.00,VWS V14.01,2013-07-29 11:58:00,
2013-07-29 05:00:00,48.7,47.7,29.94,West,270,0.0,2.5,96,0.00,,---,0.00,VWS V14.01,2013-07-29 12:00:00,
2013-07-29 05:03:00,48.7,47.7,29.94,West,270,0.0,0.0,96,0.00,,---,0.00,VWS V14.01,2013-07-29 12:03:00,
2013-07-29 05:08:00,48.6,47.5,29.94,West,270,0.0,0.0,96,0.00,,---,0.00,VWS V14.01,2013-07-29 12:08:00,
2013-07-29 05:10:00,48.4,47.3,29.94,West,270,0.0,0.0,96,0.00,,---,0.00,VWS V14.01,2013-07-29 12:10:00,
2013-07-29 05:13:00,48.4,47.3,29.94,West,270,0.0,0.0,96,0.00,,---,0.00,VWS V14.01,2013-07-29 12:13:00,
2013-07-29 05:20:00,48.4,47.3,29.94,West,270,0.0,0.0,96,0.00,,---,0.00,VWS V14.01,2013-07-29 12:20:00,
2013-07-29 05:25:00,48.4,47.3,29.94,WNW,292,0.0,0.0,96,0.00,,---,0.00,VWS V14.01,2013-07-29 12:25:00,
2013-07-29 05:30:00,48.6,47.8,29.94,West,270,0.0,0.0,97,0.00,,---,0.00,VWS V14.01,2013-07-29 12:30:00,
2013-07-29 05:35:00,48.6,47.8,29.94,WNW,292,0.0,0.0,97,0.00,,---,0.00,VWS V14.01,2013-07-29 12:35:00,
2013-07-29 05:40:00,48.7,47.9,29.94,NW,315,0.0,0.0,97,0.00,,---,0.00,VWS V14.01,2013-07-29 12:40:00,
2013-07-29 05:41:00,48.7,47.9,29.94,NW,315,0.0,0.0,97,0.00,,---,0.00,VWS V14.01,2013-07-29 12:41:00,
2013-07-29 05:46:00,48.9,48.1,29.94,NW,315,0.0,0.0,97,0.00,,---,0.00,VWS V14.01,2013-07-29 12:46:00,
2013-07-29 05:50:00,48.9,48.1,29.94,SSW,202,0.0,0.0,97,0.00,,---,0.00,VWS V14.01,2013-07-29 12:50:00,
2013-07-29 05:52:00,49.1,48.3,29.94,SSW,202,0.0,0.0,97,0.00,,---,0.00,VWS V14.01,2013-07-29 12:52:00,
2013-07-29 05:57:00,49.1,48.3,29.94,SSW,202,0.0,0.0,97,0.00,,---,0.00,VWS V14.01,2013-07-29 12:57:00,
2013-07-29 06:00:00,49.3,48.5,29.94,SSW,202,0.0,0.0,97,0.00,,---,0.00,VWS V14.01,2013-07-29 13:00:00,
2013-07-29 06:02:00,49.3,48.5,29.94,SSW,202,0.0,0.0,97,0.00,,---,0.00,VWS V14.01,2013-07-29 13:02:00,
2013-07-29 06:08:00,49.3,48.5,29.94,SSW,202,0.0,0.0,97,0.00,,---,0.00,VWS V14.01,2013-07-29 13:08:00,
2013-07-29 06:10:00,49.3,48.5,29.94,SSW,202,0.0,0.0,97,0.00,,---,0.00,VWS V14.01,2013-07-29 13:10:00,
2013-07-29 06:13:00,49.3,48.5,29.94,WNW,292,1.3,1.3,97,0.00,,---,0.00,VWS V14.01,2013-07-29 13:13:00,
2013-07-29 06:18:00,49.1,48.3,29.94,West,270,0.0,1.3,97,0.00,,---,0.00,VWS V14.01,2013-07-29 13:18:00,
2013-07-29 06:20:00,49.1,48.3,29.94,West,270,0.0,1.3,97,0.00,,---,0.00,VWS V14.01,2013-07-29 13:20:00,
2013-07-29 06:24:00,49.1,48.3,29.94,West,270,0.0,0.0,97,0.00,,---,0.00,VWS V14.01,2013-07-29 13:24:00,
2013-07-29 06:29:00,49.1,48.3,29.94,West,270,0.0,0.0,97,0.00,,---,0.00,VWS V14.01,2013-07-29 13:29:00,
2013-07-29 06:30:00,49.1,48.3,29.94,West,270,0.0,0.0,97,0.00,,---,0.00,VWS V14.01,2013-07-29 13:30:00,
2013-07-29 06:34:00,49.1,48.3,29.94,West,270,0.0,0.0,97,0.00,,---,0.00,VWS V14.01,2013-07-29 13:34:00,
2013-07-29 06:40:00,49.1,48.3,29.94,WNW,292,0.0,0.0,97,0.00,,---,0.00,VWS V14.01,2013-07-29 13:40:00,
2013-07-29 06:45:00,49.3,48.5,29.94,WNW,292,0.0,0.0,97,0.00,,---,0.00,VWS V14.01,2013-07-29 13:45:00,
2013-07-29 06:50:00,49.3,48.5,29.94,WNW,292,0.0,0.0,97,0.00,,---,0.00,VWS V14.01,2013-07-29 13:50:00,
2013-07-29 06:52:00,49.3,48.5,29.94,WNW,292,0.0,0.0,97,0.00,,---,0.00,VWS V14.01,2013-07-29 13:52:00,
2013-07-29 06:57:00,49.3,48.5,29.94,SSW,202,0.0,0.0,97,0.00,,---,0.00,VWS V14.01,2013-07-29 13:57:00,
2013-07-29 07:00:00,49.3,48.5,29.94,SSE,158,1.1,1.1,97,0.00,,---,0.00,VWS V14.01,2013-07-29 14:00:00,
2013-07-29 07:02:00,49.3,48.5,29.94,SSE,158,0.0,1.1,97,0.00,,---,0.00,VWS V14.01,2013-07-29 14:02:00,
2013-07-29 07:07:00,49.5,48.7,29.94,SSE,158,0.0,2.0,97,0.00,,---,0.00,VWS V14.01,2013-07-29 14:07:00,
2013-07-29 07:10:00,49.5,48.7,29.94,SSE,158,0.0,2.0,97,0.00,,---,0.00,VWS V14.01,2013-07-29 14:10:00,
2013-07-29 07:13:00,49.5,48.7,29.94,SE,135,0.0,0.9,97,0.00,,---,0.00,VWS V14.01,2013-07-29 14:13:00,
2013-07-29 07:19:00,49.3,48.5,29.94,SE,135,0.0,0.9,97,0.00,,---,0.00,VWS V14.01,2013-07-29 14:19:00,
2013-07-29 07:20:00,49.3,48.5,29.94,SE,135,0.0,0.9,97,0.00,,---,0.00,VWS V14.01,2013-07-29 14:20:00,
2013-07-29 07:25:00,49.5,48.7,29.94,SE,135,0.0,2.5,97,0.00,,---,0.00,VWS V14.01,2013-07-29 14:25:00,
2013-07-29 07:30:00,49.6,49.1,29.94,SE,135,0.0,2.5,98,0.00,,---,0.00,VWS V14.01,2013-07-29 14:30:00,
2013-07-29 07:35:00,49.8,49.3,29.94,SE,135,0.0,0.0,98,0.00,,---,0.00,VWS V14.01,2013-07-29 14:35:00,
2013-07-29 07:40:00,50.0,49.2,29.94,SE,135,0.0,0.0,97,0.00,,---,0.00,VWS V14.01,2013-07-29 14:40:00,
2013-07-29 07:42:00,50.2,49.4,29.94,SE,135,0.0,0.0,97,0.00,,---,0.00,VWS V14.01,2013-07-29 14:42:00,
2013-07-29 07:47:00,50.4,49.5,29.94,SE,135,0.0,0.0,97,0.00,,---,0.00,VWS V14.01,2013-07-29 14:47:00,
2013-07-29 07:50:00,50.5,50.0,29.94,SE,135,0.0,2.0,98,0.00,,---,0.00,VWS V14.01,2013-07-29 14:50:00,
2013-07-29 07:53:00,50.9,50.4,29.94,SE,135,0.0,0.0,98,0.00,,---,0.00,VWS V14.01,2013-07-29 14:53:00,
2013-07-29 07:58:00,51.1,50.5,29.94,WNW,292,0.0,0.0,98,0.00,,---,0.00,VWS V14.01,2013-07-29 14:58:00,
2013-07-29 08:00:00,51.1,50.5,29.94,WNW,292,1.1,1.1,98,0.00,,---,0.00,VWS V14.01,2013-07-29 15:00:00,
2013-07-29 08:03:00,50.7,50.2,29.94,NW,315,1.3,2.5,98,0.00,,---,0.00,VWS V14.01,2013-07-29 15:03:00,
2013-07-29 08:09:00,50.7,50.2,29.94,NNW,338,0.9,2.5,98,0.00,,---,0.00,VWS V14.01,2013-07-29 15:09:00,
2013-07-29 08:10:00,50.7,50.2,29.94,NNW,338,0.0,2.5,98,0.00,,---,0.00,VWS V14.01,2013-07-29 15:10:00,
2013-07-29 08:14:00,50.7,50.2,29.94,NW,315,2.2,2.2,98,0.00,,---,0.00,VWS V14.01,2013-07-29 15:14:00,
2013-07-29 08:19:00,50.9,50.4,29.94,WNW,292,0.0,2.2,98,0.00,,---,0.00,VWS V14.01,2013-07-29 15:19:00,
2013-07-29 08:20:00,50.9,50.4,29.94,WNW,292,0.0,2.2,98,0.00,,---,0.00,VWS V14.01,2013-07-29 15:20:00,
2013-07-29 08:25:00,50.5,50.0,29.94,WNW,292,1.3,3.8,98,0.00,,---,0.00,VWS V14.01,2013-07-29 15:25:00,
2013-07-29 08:30:00,50.4,49.5,29.94,WNW,292,2.2,2.5,97,0.00,,---,0.00,VWS V14.01,2013-07-29 15:30:00,
2013-07-29 08:36:00,50.9,50.4,29.94,NE,45,0.0,2.5,98,0.00,,---,0.00,VWS V14.01,2013-07-29 15:36:00,
2013-07-29 08:40:00,51.3,50.7,29.94,WNW,292,1.6,2.5,98,0.00,,---,0.00,VWS V14.01,2013-07-29 15:40:00,
2013-07-29 08:42:00,51.6,51.1,29.94,WNW,292,0.9,1.6,98,0.00,,---,0.00,VWS V14.01,2013-07-29 15:42:00,
2013-07-29 08:48:00,51.8,51.3,29.94,NW,315,1.3,1.6,98,0.00,,---,0.00,VWS V14.01,2013-07-29 15:48:00,
2013-07-29 08:50:00,52.0,51.4,29.94,WNW,292,3.6,3.6,98,0.00,,---,0.00,VWS V14.01,2013-07-29 15:50:00,
2013-07-29 08:53:00,52.5,52.0,29.94,NW,315,2.7,4.5,98,0.00,,---,0.00,VWS V14.01,2013-07-29 15:53:00,
2013-07-29 08:58:00,52.5,52.0,29.94,WNW,292,2.5,4.7,98,0.00,,---,0.00,VWS V14.01,2013-07-29 15:58:00,
2013-07-29 09:00:00,52.7,52.2,29.94,North,0,2.9,4.7,98,0.00,,---,0.00,VWS V14.01,2013-07-29 16:00:00,
2013-07-29 09:03:00,52.7,51.9,29.94,WNW,292,2.0,2.9,97,0.00,,---,0.00,VWS V14.01,2013-07-29 16:03:00,
2013-07-29 09:08:00,53.1,52.2,29.94,WNW,292,0.0,2.9,97,0.00,,---,0.00,VWS V14.01,2013-07-29 16:08:00,
2013-07-29 09:10:00,53.1,52.2,29.94,NNW,338,3.8,3.8,97,0.00,,---,0.00,VWS V14.01,2013-07-29 16:10:00,
2013-07-29 09:13:00,53.1,52.2,29.94,NW,315,2.9,3.8,97,0.00,,---,0.00,VWS V14.01,2013-07-29 16:13:00,
2013-07-29 09:19:00,53.4,52.3,29.94,NNW,338,0.0,3.8,96,0.00,,---,0.00,VWS V14.01,2013-07-29 16:19:00,
2013-07-29 09:20:00,53.4,52.3,29.94,NW,315,0.9,3.8,96,0.00,,---,0.00,VWS V14.01,2013-07-29 16:20:00,
2013-07-29 09:25:00,53.6,52.5,29.94,NW,315,1.6,3.1,96,0.00,,---,0.00,VWS V14.01,2013-07-29 16:25:00,
2013-07-29 09:30:00,53.8,52.4,29.94,WSW,248,3.1,3.1,95,0.00,,---,0.00,VWS V14.01,2013-07-29 16:30:00,
2013-07-29 09:35:00,54.1,52.7,29.94,West,270,1.1,3.6,95,0.00,,---,0.00,VWS V14.01,2013-07-29 16:35:00,
2013-07-29 09:40:00,54.0,52.3,29.94,NW,315,2.9,2.9,94,0.00,,---,0.00,VWS V14.01,2013-07-29 16:40:00,
2013-07-29 09:45:00,53.8,51.8,29.94,WNW,292,3.6,3.8,93,0.00,,---,0.00,VWS V14.01,2013-07-29 16:45:00,
2013-07-29 09:50:00,53.6,51.6,29.94,WNW,292,2.9,4.7,93,0.00,,---,0.00,VWS V14.01,2013-07-29 16:50:00,
2013-07-29 09:52:00,53.8,52.1,29.94,NW,315,6.5,6.5,94,0.00,,---,0.00,VWS V14.01,2013-07-29 16:52:00,
2013-07-29 09:57:00,54.0,52.3,29.94,NNW,338,0.9,6.5,94,0.00,,---,0.00,VWS V14.01,2013-07-29 16:57:00,
2013-07-29 10:00:00,54.3,52.3,29.94,WNW,292,4.0,6.5,93,0.00,,---,0.00,VWS V14.01,2013-07-29 17:00:00,
2013-07-29 10:03:00,54.5,52.2,29.94,WNW,292,3.6,4.0,92,0.00,,---,0.00,VWS V14.01,2013-07-29 17:03:00,
2013-07-29 10:09:00,54.7,52.1,29.94,NNW,338,5.4,8.5,91,0.00,,---,0.00,VWS V14.01,2013-07-29 17:09:00,
2013-07-29 10:10:00,54.7,52.1,29.94,WNW,292,6.5,8.5,91,0.00,,---,0.00,VWS V14.01,2013-07-29 17:10:00,
2013-07-29 10:14:00,54.9,52.0,29.94,NNW,338,2.9,6.5,90,0.00,,---,0.00,VWS V14.01,2013-07-29 17:14:00,
2013-07-29 10:20:00,55.4,52.8,29.94,NNW,338,2.9,6.5,91,0.00,,---,0.00,VWS V14.01,2013-07-29 17:20:00,
2013-07-29 10:25:00,55.4,52.8,29.94,WNW,292,2.9,5.8,91,0.00,,---,0.00,VWS V14.01,2013-07-29 17:25:00,
2013-07-29 10:30:00,55.6,52.4,29.94,WNW,292,2.7,4.3,89,0.00,,---,0.00,VWS V14.01,2013-07-29 17:30:00,
2013-07-29 10:36:00,55.6,52.1,29.94,WNW,292,5.4,5.6,88,0.00,,---,0.00,VWS V14.01,2013-07-29 17:36:00,
2013-07-29 10:40:00,56.1,52.6,29.94,WNW,292,4.3,6.0,88,0.00,,---,0.00,VWS V14.01,2013-07-29 17:40:00,
2013-07-29 10:42:00,56.1,51.7,29.94,NNW,338,3.4,5.4,85,0.00,,---,0.00,VWS V14.01,2013-07-29 17:42:00,
2013-07-29 10:47:00,55.9,51.5,29.94,WNW,292,6.0,6.0,85,0.00,,---,0.00,VWS V14.01,2013-07-29 17:47:00,
2013-07-29 10:50:00,55.9,51.5,29.94,NW,315,5.4,6.0,85,0.00,,---,0.00,VWS V14.01,2013-07-29 17:50:00,
2013-07-29 10:52:00,55.9,51.8,29.94,WNW,292,5.8,5.8,86,0.00,,---,0.00,VWS V14.01,2013-07-29 17:52:00,
2013-07-29 10:57:00,56.3,51.5,29.94,NNE,22,1.1,5.8,84,0.00,,---,0.00,VWS V14.01,2013-07-29 17:57:00,
2013-07-29 11:00:00,56.5,52.0,29.94,WNW,292,2.7,5.8,85,0.00,,---,0.00,VWS V14.01,2013-07-29 18:00:00,
2013-07-29 11:03:00,56.5,51.7,29.94,NNW,338,5.4,6.3,84,0.00,,---,0.00,VWS V14.01,2013-07-29 18:03:00,
2013-07-29 11:08:00,56.1,50.7,29.94,WNW,292,4.0,7.8,82,0.00,,---,0.00,VWS V14.01,2013-07-29 18:08:00,
2013-07-29 11:10:00,56.3,50.9,29.94,SE,135,2.9,7.8,82,0.00,,---,0.00,VWS V14.01,2013-07-29 18:10:00,
2013-07-29 11:14:00,56.8,51.4,29.94,NW,315,3.6,4.0,82,0.00,,---,0.00,VWS V14.01,2013-07-29 18:14:00,
2013-07-29 11:19:00,57.2,51.8,29.94,NW,315,3.4,5.4,82,0.00,,---,0.00,VWS V14.01,2013-07-29 18:19:00,
2013-07-29 11:20:00,57.2,51.8,29.94,WNW,292,2.9,5.4,82,0.00,,---,0.00,VWS V14.01,2013-07-29 18:20:00,
2013-07-29 11:24:00,57.6,51.8,29.94,NNW,338,4.0,9.8,81,0.00,,---,0.00,VWS V14.01,2013-07-29 18:24:00,
2013-07-29 11:30:00,57.9,51.5,29.94,WNW,292,3.1,9.8,79,0.00,,---,0.00,VWS V14.01,2013-07-29 18:30:00,
2013-07-29 11:36:00,58.3,51.8,29.94,WNW,292,7.4,7.4,79,0.00,,---,0.00,VWS V14.01,2013-07-29 18:36:00,
2013-07-29 11:40:00,58.5,51.3,29.94,WNW,292,7.8,7.8,77,0.00,,---,0.00,VWS V14.01,2013-07-29 18:40:00,
2013-07-29 11:41:00,58.5,51.3,29.94,NNW,338,4.0,7.8,77,0.00,,---,0.00,VWS V14.01,2013-07-29 18:41:00,
2013-07-29 11:47:00,59.0,51.5,29.94,NNW,338,6.5,7.8,76,0.00,,---,0.00,VWS V14.01,2013-07-29 18:47:00,
2013-07-29 11:50:00,59.2,52.0,29.94,NNW,338,2.9,7.8,77,0.00,,---,0.00,VWS V14.01,2013-07-29 18:50:00,
2013-07-29 11:52:00,59.4,52.2,29.94,WNW,292,3.8,3.8,77,0.00,,---,0.00,VWS V14.01,2013-07-29 18:52:00,
2013-07-29 11:57:00,59.4,51.8,29.94,WNW,292,3.4,6.5,76,0.00,,---,0.00,VWS V14.01,2013-07-29 18:57:00,
2013-07-29 12:00:00,59.4,51.8,29.94,WNW,292,7.4,7.4,76,0.00,,---,0.00,VWS V14.01,2013-07-29 19:00:00,
2013-07-29 12:02:00,59.2,51.3,29.94,WNW,292,5.6,7.4,75,0.00,,---,0.00,VWS V14.01,2013-07-29 19:02:00,
2013-07-29 12:07:00,59.0,50.7,29.94,WNW,292,3.8,7.4,74,0.00,,---,0.00,VWS V14.01,2013-07-29 19:07:00,
2013-07-29 12:10:00,59.0,50.7,29.94,WNW,292,7.6,7.6,74,0.00,,---,0.00,VWS V14.01,2013-07-29 19:10:00,
2013-07-29 12:12:00,59.2,50.5,29.94,WNW,292,3.8,7.6,73,0.00,,---,0.00,VWS V14.01,2013-07-29 19:12:00,
2013-07-29 12:17:00,58.6,50.0,29.94,WNW,292,5.6,7.6,73,0.00,,---,0.00,VWS V14.01,2013-07-29 19:17:00,
2013-07-29 12:20:00,58.8,50.2,29.94,WNW,292,4.3,7.6,73,0.00,,---,0.00,VWS V14.01,2013-07-29 19:20:00,
2013-07-29 12:22:00,58.8,50.2,29.94,NNW,338,7.8,7.8,73,0.00,,---,0.00,VWS V14.01,2013-07-29 19:22:00,
2013-07-29 12:28:00,58.8,50.2,29.94,WNW,292,4.0,7.8,73,0.00,,---,0.00,VWS V14.01,2013-07-29 19:28:00,
2013-07-29 12:30:00,59.0,50.4,29.94,WNW,292,6.7,7.8,73,0.00,,---,0.00,VWS V14.01,2013-07-29 19:30:00,
2013-07-29 12:34:00,58.5,49.8,29.94,NNW,338,4.9,6.7,73,0.00,,---,0.00,VWS V14.01,2013-07-29 19:34:00,
2013-07-29 12:39:00,58.8,50.2,29.94,WNW,292,4.9,6.7,73,0.00,,---,0.00,VWS V14.01,2013-07-29 19:39:00,
2013-07-29 12:40:00,58.8,50.2,29.94,WNW,292,6.0,6.7,73,0.00,,---,0.00,VWS V14.01,2013-07-29 19:40:00,
2013-07-29 12:44:00,58.6,49.7,29.94,NNW,338,4.9,9.8,72,0.00,,---,0.00,VWS V14.01,2013-07-29 19:44:00,
2013-07-29 12:49:00,58.5,49.8,29.94,NNE,22,3.6,9.8,73,0.00,,---,0.00,VWS V14.01,2013-07-29 19:49:00,
2013-07-29 12:50:00,58.5,49.8,29.94,WNW,292,6.0,9.8,73,0.00,,---,0.00,VWS V14.01,2013-07-29 19:50:00,
2013-07-29 13:54:00,58.5,49.5,29.94,NW,315,5.4,5.4,72,0.00,,---,0.00,VWS V14.01,2013-07-29 20:54:00,
2013-07-29 13:59:00,58.5,49.5,29.94,NNW,338,7.6,7.6,72,0.00,,---,0.00,VWS V14.01,2013-07-29 20:59:00,
2013-07-29 14:00:00,58.5,49.5,29.94,WNW,292,7.2,7.6,72,0.00,,---,0.00,VWS V14.01,2013-07-29 21:00:00,
2013-07-29 14:04:00,58.1,49.1,29.97,NW,315,4.0,10.7,72,0.00,,---,0.00,VWS V14.01,2013-07-29 21:04:00,
2013-07-29 14:09:00,58.5,49.8,29.97,WNW,292,3.6,10.7,73,0.00,,---,0.00,VWS V14.01,2013-07-29 21:09:00,
2013-07-29 14:10:00,58.5,49.8,29.97,WNW,292,3.6,10.7,73,0.00,,---,0.00,VWS V14.01,2013-07-29 21:10:00,
2013-07-29 14:14:00,57.9,49.3,29.97,NNW,338,8.1,10.5,73,0.00,,---,0.00,VWS V14.01,2013-07-29 21:14:00,
2013-07-29 14:20:00,58.3,49.7,29.97,WNW,292,7.8,10.5,73,0.00,,---,0.00,VWS V14.01,2013-07-29 21:20:00,
2013-07-29 14:25:00,58.5,49.8,29.97,WNW,292,5.6,8.7,73,0.00,,---,0.00,VWS V14.01,2013-07-29 21:25:00,
2013-07-29 14:30:00,58.8,50.2,29.97,WNW,292,8.1,8.5,73,0.00,,---,0.00,VWS V14.01,2013-07-29 21:30:00,
2013-07-29 14:36:00,59.2,50.2,29.97,WNW,292,7.2,8.5,72,0.00,,---,0.00,VWS V14.01,2013-07-29 21:36:00,
2013-07-29 14:40:00,59.4,50.3,29.97,NNW,338,8.1,8.5,72,0.00,,---,0.00,VWS V14.01,2013-07-29 21:40:00,
2013-07-29 14:42:00,59.2,49.8,29.97,WNW,292,6.0,9.6,71,0.00,,---,0.00,VWS V14.01,2013-07-29 21:42:00,
2013-07-29 14:48:00,59.4,50.0,29.97,NW,315,8.1,9.6,71,0.00,,---,0.00,VWS V14.01,2013-07-29 21:48:00,
2013-07-29 14:50:00,59.4,49.6,29.97,NNW,338,5.6,9.6,70,0.00,,---,0.00,VWS V14.01,2013-07-29 21:50:00,
2013-07-29 14:54:00,59.4,49.6,29.97,West,270,5.6,9.8,70,0.00,,---,0.00,VWS V14.01,2013-07-29 21:54:00,
2013-07-29 14:59:00,59.5,49.4,29.97,West,270,4.9,9.8,69,0.00,,---,0.00,VWS V14.01,2013-07-29 21:59:00,
2013-07-29 15:00:00,59.7,49.9,29.97,NNW,338,3.6,9.8,70,0.00,,---,0.00,VWS V14.01,2013-07-29 22:00:00,
2013-07-29 15:04:00,59.9,49.7,29.97,WNW,292,6.5,8.7,69,0.00,,---,0.00,VWS V14.01,2013-07-29 22:04:00,
2013-07-29 15:10:00,60.1,49.9,29.97,NNW,338,5.8,8.7,69,0.00,,---,0.00,VWS V14.01,2013-07-29 22:10:00,
2013-07-29 15:15:00,59.5,49.0,29.97,NNW,338,8.1,8.7,68,0.00,,---,0.00,VWS V14.01,2013-07-29 22:15:00,
2013-07-29 15:20:00,59.4,48.4,29.97,NW,315,5.4,6.3,67,0.00,,---,0.00,VWS V14.01,2013-07-29 22:20:00,
2013-07-29 15:25:00,60.1,49.5,29.97,NNW,338,4.0,7.6,68,0.00,,---,0.00,VWS V14.01,2013-07-29 22:25:00,
2013-07-29 15:30:00,59.5,48.6,29.97,WNW,292,4.9,9.6,67,0.00,,---,0.00,VWS V14.01,2013-07-29 22:30:00,
2013-07-29 15:31:00,59.5,48.6,29.97,WNW,292,3.8,4.9,67,0.00,,---,0.00,VWS V14.01,2013-07-29 22:31:00,
2013-07-29 15:36:00,59.4,48.4,29.97,NNW,338,6.5,7.6,67,0.00,,---,0.00,VWS V14.01,2013-07-29 22:36:00,
2013-07-29 15:40:00,59.2,48.2,29.97,WNW,292,2.7,9.0,67,0.00,,---,0.00,VWS V14.01,2013-07-29 22:40:00,
2013-07-29 15:42:00,59.4,48.4,29.97,WNW,292,3.8,5.6,67,0.00,,---,0.00,VWS V14.01,2013-07-29 22:42:00,
2013-07-29 15:48:00,59.2,48.2,29.97,NW,315,11.9,11.9,67,0.00,,---,0.00,VWS V14.01,2013-07-29 22:48:00,
2013-07-29 15:50:00,59.5,48.6,29.97,WNW,292,6.3,11.9,67,0.00,,---,0.00,VWS V14.01,2013-07-29 22:50:00,
2013-07-29 15:53:00,59.7,48.8,29.97,NNW,338,3.8,7.6,67,0.00,,---,0.00,VWS V14.01,2013-07-29 22:53:00,
2013-07-29 15:58:00,60.4,48.6,29.97,WNW,292,9.6,9.6,65,0.00,,---,0.00,VWS V14.01,2013-07-29 22:58:00,
2013-07-29 16:00:00,60.4,48.6,29.97,NW,315,8.5,9.6,65,0.00,,---,0.00,VWS V14.01,2013-07-29 23:00:00,
2013-07-29 16:03:00,60.6,48.4,29.97,NNW,338,7.4,8.5,64,0.00,,---,0.00,VWS V14.01,2013-07-29 23:03:00,
2013-07-29 16:09:00,60.6,48.4,29.97,WNW,292,8.7,9.8,64,0.00,,---,0.00,VWS V14.01,2013-07-29 23:09:00,
2013-07-29 16:10:00,60.6,48.4,29.97,NNW,338,6.3,9.8,64,0.00,,---,0.00,VWS V14.01,2013-07-29 23:10:00,
2013-07-29 16:14:00,60.1,47.5,29.97,NNW,338,8.7,8.7,63,0.00,,---,0.00,VWS V14.01,2013-07-29 23:14:00,
2013-07-29 16:19:00,60.1,47.9,29.97,NNW,338,4.3,8.7,64,0.00,,---,0.00,VWS V14.01,2013-07-29 23:19:00,
2013-07-29 16:20:00,60.1,47.9,29.97,NNW,338,6.0,8.7,64,0.00,,---,0.00,VWS V14.01,2013-07-29 23:20:00,
2013-07-29 16:24:00,59.7,47.5,29.97,WNW,292,8.5,8.5,64,0.00,,---,0.00,VWS V14.01,2013-07-29 23:24:00,
2013-07-29 16:29:00,59.4,47.6,29.97,WNW,292,7.4,8.5,65,0.00,,---,0.00,VWS V14.01,2013-07-29 23:29:00,
2013-07-29 16:30:00,59.4,47.6,29.97,WNW,292,7.4,8.5,65,0.00,,---,0.00,VWS V14.01,2013-07-29 23:30:00,
2013-07-29 16:35:00,58.8,47.9,29.97,WNW,292,6.5,7.4,67,0.00,,---,0.00,VWS V14.01,2013-07-29 23:35:00,
2013-07-29 16:40:00,58.5,48.0,29.97,NNW,338,4.9,8.1,68,0.00,,---,0.00,VWS V14.01,2013-07-29 23:40:00,
2013-07-29 16:42:00,58.5,48.0,29.97,WNW,292,6.3,6.3,68,0.00,,---,0.00,VWS V14.01,2013-07-29 23:42:00,
2013-07-29 16:47:00,58.8,48.7,29.97,WNW,292,8.5,8.5,69,0.00,,---,0.00,VWS V14.01,2013-07-29 23:47:00,
2013-07-29 16:50:00,59.0,48.9,29.97,NNW,338,6.0,8.5,69,0.00,,---,0.00,VWS V14.01,2013-07-29 23:50:00,
2013-07-29 16:52:00,59.0,48.9,29.97,WNW,292,5.6,6.5,69,0.00,,---,0.00,VWS V14.01,2013-07-29 23:52:00,
2013-07-29 16:57:00,59.0,48.9,29.97,NNW,338,7.4,7.4,69,0.00,,---,0.00,VWS V14.01,2013-07-29 23:57:00,
2013-07-29 17:00:00,59.4,49.2,29.97,WNW,292,6.5,8.7,69,0.00,,---,0.00,VWS V14.01,2013-07-30 00:00:00,
2013-07-29 17:02:00,59.5,49.0,29.97,WNW,292,6.5,6.5,68,0.00,,---,0.00,VWS V14.01,2013-07-30 00:02:00,
2013-07-29 17:08:00,59.4,48.8,29.97,NNW,338,6.0,7.2,68,0.00,,---,0.00,VWS V14.01,2013-07-30 00:08:00,
2013-07-29 17:10:00,59.4,48.8,29.97,WNW,292,3.4,7.8,68,0.00,,---,0.00,VWS V14.01,2013-07-30 00:10:00,
2013-07-29 17:13:00,59.4,48.8,29.97,NNW,338,4.9,7.8,68,0.00,,---,0.00,VWS V14.01,2013-07-30 00:13:00,
2013-07-29 17:19:00,58.8,48.3,29.97,NNW,338,3.8,7.8,68,0.00,,---,0.00,VWS V14.01,2013-07-30 00:19:00,
2013-07-29 17:20:00,58.6,48.1,29.97,NNW,338,6.0,7.8,68,0.00,,---,0.00,VWS V14.01,2013-07-30 00:20:00,
2013-07-29 17:24:00,58.3,48.2,29.97,NNW,338,5.4,6.3,69,0.00,,---,0.00,VWS V14.01,2013-07-30 00:24:00,
2013-07-29 17:29:00,58.1,48.0,29.97,WNW,292,4.7,6.9,69,0.00,,---,0.00,VWS V14.01,2013-07-30 00:29:00,
2013-07-29 17:30:00,57.9,47.8,29.97,NNW,338,8.1,8.1,69,0.00,,---,0.00,VWS V14.01,2013-07-30 00:30:00,
2013-07-29 17:36:00,57.9,48.2,29.97,NNW,338,4.0,8.1,70,0.00,,---,0.00,VWS V14.01,2013-07-30 00:36:00,
2013-07-29 17:40:00,57.9,48.2,29.97,NNW,338,4.3,8.1,70,0.00,,---,0.00,VWS V14.01,2013-07-30 00:40:00,
2013-07-29 17:41:00,58.1,48.8,29.97,WNW,292,4.3,4.3,71,0.00,,---,0.00,VWS V14.01,2013-07-30 00:41:00,
2013-07-29 17:47:00,59.4,49.6,29.97,WNW,292,5.6,7.8,70,0.00,,---,0.00,VWS V14.01,2013-07-30 00:47:00,
2013-07-29 17:50:00,59.9,49.7,29.97,NNE,22,8.5,8.5,69,0.00,,---,0.00,VWS V14.01,2013-07-30 00:50:00,
2013-07-29 17:52:00,60.1,49.9,29.97,WNW,292,4.0,8.5,69,0.00,,---,0.00,VWS V14.01,2013-07-30 00:52:00,
2013-07-29 17:57:00,60.1,49.1,29.97,NNW,338,5.4,8.5,67,0.00,,---,0.00,VWS V14.01,2013-07-30 00:57:00,
2013-07-29 18:00:00,60.3,48.9,29.97,WNW,292,5.4,8.5,66,0.00,,---,0.00,VWS V14.01,2013-07-30 01:00:00,
2013-07-29 18:02:00,60.3,48.9,29.97,WNW,292,6.3,8.5,66,0.00,,---,0.00,VWS V14.01,2013-07-30 01:02:00,
2013-07-29 18:07:00,60.4,48.6,29.97,North,0,6.3,10.1,65,0.00,,---,0.00,VWS V14.01,2013-07-30 01:07:00,
2013-07-29 18:10:00,60.4,48.6,29.97,WNW,292,8.5,10.1,65,0.00,,---,0.00,VWS V14.01,2013-07-30 01:10:00,
2013-07-29 18:13:00,60.3,48.5,29.97,NNW,338,7.4,8.5,65,0.00,,---,0.00,VWS V14.01,2013-07-30 01:13:00,
2013-07-29 18:18:00,60.3,48.5,29.97,WNW,292,9.0,9.0,65,0.00,,---,0.00,VWS V14.01,2013-07-30 01:18:00,
2013-07-29 18:20:00,60.1,47.9,29.97,NNW,338,4.3,9.0,64,0.00,,---,0.00,VWS V14.01,2013-07-30 01:20:00,
2013-07-29 18:23:00,60.3,48.0,29.97,NW,315,3.6,5.8,64,0.00,,---,0.00,VWS V14.01,2013-07-30 01:23:00,
2013-07-29 18:29:00,59.5,47.4,29.97,WNW,292,3.8,7.2,64,0.00,,---,0.00,VWS V14.01,2013-07-30 01:29:00,
2013-07-29 18:30:00,59.5,47.4,29.97,WNW,292,3.8,7.2,64,0.00,,---,0.00,VWS V14.01,2013-07-30 01:30:00,
2013-07-29 18:34:00,59.7,48.0,29.97,NNW,338,3.4,5.4,65,0.00,,---,0.00,VWS V14.01,2013-07-30 01:34:00,
2013-07-29 18:39:00,59.2,47.4,29.97,WNW,292,4.3,5.6,65,0.00,,---,0.00,VWS V14.01,2013-07-30 01:39:00,
2013-07-29 18:40:00,59.2,47.4,29.97,NW,315,3.6,5.6,65,0.00,,---,0.00,VWS V14.01,2013-07-30 01:40:00,
2013-07-29 18:44:00,59.0,47.7,29.97,NNW,338,5.4,7.2,66,0.00,,---,0.00,VWS V14.01,2013-07-30 01:44:00,
2013-07-29 18:49:00,58.6,47.7,29.94,NNW,338,6.3,7.2,67,0.00,,---,0.00,VWS V14.01,2013-07-30 01:49:00,
2013-07-29 18:50:00,58.6,47.7,29.94,NW,315,6.0,7.2,67,0.00,,---,0.00,VWS V14.01,2013-07-30 01:50:00,
2013-07-29 18:55:00,58.6,48.1,29.94,North,0,5.4,6.0,68,0.00,,---,0.00,VWS V14.01,2013-07-30 01:55:00,
2013-07-29 19:00:00,58.8,48.3,29.94,NNW,338,5.4,5.4,68,0.00,,---,0.00,VWS V14.01,2013-07-30 02:00:00,
2013-07-29 19:05:00,59.0,48.5,29.94,NNW,338,4.7,5.8,68,0.00,,---,0.00,VWS V14.01,2013-07-30 02:05:00,
2013-07-29 19:10:00,59.0,48.5,29.94,WNW,292,2.9,6.5,68,0.00,,---,0.00,VWS V14.01,2013-07-30 02:10:00,
2013-07-29 19:11:00,59.0,48.5,29.94,WNW,292,4.0,4.0,68,0.00,,---,0.00,VWS V14.01,2013-07-30 02:11:00,
2013-07-29 19:17:00,58.8,48.3,29.94,WNW,292,5.4,7.4,68,0.00,,---,0.00,VWS V14.01,2013-07-30 02:17:00,
2013-07-29 19:20:00,58.6,48.1,29.97,NNW,338,4.0,7.4,68,0.00,,---,0.00,VWS V14.01,2013-07-30 02:20:00,
2013-07-29 19:22:00,58.3,47.8,29.97,NNW,338,2.9,4.0,68,0.00,,---,0.00,VWS V14.01,2013-07-30 02:22:00,
2013-07-29 19:27:00,57.9,47.8,29.97,WNW,292,2.0,5.4,69,0.00,,---,0.00,VWS V14.01,2013-07-30 02:27:00,
2013-07-29 19:30:00,57.9,47.8,29.97,North,0,1.1,5.4,69,0.00,,---,0.00,VWS V14.01,2013-07-30 02:30:00,
2013-07-29 19:32:00,58.1,48.4,29.97,NNW,338,2.7,3.6,70,0.00,,---,0.00,VWS V14.01,2013-07-30 02:32:00,
2013-07-29 19:38:00,57.9,48.2,29.97,NNW,338,2.5,3.6,70,0.00,,---,0.00,VWS V14.01,2013-07-30 02:38:00,
2013-07-29 19:40:00,57.9,48.2,29.97,WNW,292,3.4,3.6,70,0.00,,---,0.00,VWS V14.01,2013-07-30 02:40:00,
2013-07-29 19:43:00,57.2,47.5,29.97,NNW,338,4.0,4.9,70,0.00,,---,0.00,VWS V14.01,2013-07-30 02:43:00,
2013-07-29 19:49:00,56.8,47.9,29.97,WNW,292,2.9,5.4,72,0.00,,---,0.00,VWS V14.01,2013-07-30 02:49:00,
2013-07-29 19:50:00,56.7,47.8,29.97,WNW,292,0.9,5.4,72,0.00,,---,0.00,VWS V14.01,2013-07-30 02:50:00,
2013-07-29 19:54:00,56.7,47.8,29.97,NW,315,1.6,2.5,72,0.00,,---,0.00,VWS V14.01,2013-07-30 02:54:00,
2013-07-29 19:59:00,56.7,48.1,29.97,NNW,338,0.9,3.4,73,0.00,,---,0.00,VWS V14.01,2013-07-30 02:59:00,
2013-07-29 20:00:00,56.7,48.1,29.97,NNW,338,0.9,3.4,73,0.00,,---,0.00,VWS V14.01,2013-07-30 03:00:00,
2013-07-29 20:05:00,56.5,47.9,29.97,NNW,338,2.2,3.6,73,0.00,,---,0.00,VWS V14.01,2013-07-30 03:05:00,
2013-07-29 20:10:00,56.1,47.6,29.97,NNW,338,3.4,3.6,73,0.00,,---,0.00,VWS V14.01,2013-07-30 03:10:00,
2013-07-29 20:11:00,56.1,48.0,29.97,WNW,292,1.1,3.4,74,0.00,,---,0.00,VWS V14.01,2013-07-30 03:11:00,
2013-07-29 20:17:00,56.1,48.0,29.97,WNW,292,2.0,3.4,74,0.00,,---,0.00,VWS V14.01,2013-07-30 03:17:00,
2013-07-29 20:20:00,55.9,47.8,29.97,WNW,292,2.0,3.4,74,0.00,,---,0.00,VWS V14.01,2013-07-30 03:20:00,
2013-07-29 20:23:00,55.9,48.1,29.97,WNW,292,0.0,2.0,75,0.00,,---,0.00,VWS V14.01,2013-07-30 03:23:00,
2013-07-29 20:29:00,55.9,48.1,29.97,NNW,338,0.0,2.0,75,0.00,,---,0.00,VWS V14.01,2013-07-30 03:29:00,
2013-07-29 20:30:00,55.9,48.1,29.97,NNW,338,3.1,3.1,75,0.00,,---,0.00,VWS V14.01,2013-07-30 03:30:00,
2013-07-29 20:34:00,55.6,47.8,30.00,NNW,338,1.1,3.1,75,0.00,,---,0.00,VWS V14.01,2013-07-30 03:34:00,
2013-07-29 20:40:00,55.2,47.8,30.00,NW,315,1.6,3.1,76,0.00,,---,0.00,VWS V14.01,2013-07-30 03:40:00,
2013-07-29 20:46:00,55.0,48.0,30.00,NW,315,0.9,3.4,77,0.00,,---,0.00,VWS V14.01,2013-07-30 03:46:00,
2013-07-29 20:50:00,54.9,47.8,30.00,NW,315,1.1,3.4,77,0.00,,---,0.00,VWS V14.01,2013-07-30 03:50:00,
2013-07-29 20:51:00,54.9,47.8,30.00,NNW,338,0.0,1.1,77,0.00,,---,0.00,VWS V14.01,2013-07-30 03:51:00,
2013-07-29 20:57:00,54.9,48.1,30.00,NW,315,0.0,2.5,78,0.00,,---,0.00,VWS V14.01,2013-07-30 03:57:00,
2013-07-29 21:00:00,54.9,48.1,30.00,NNW,338,0.0,2.5,78,0.00,,---,0.00,VWS V14.01,2013-07-30 04:00:00,
2013-07-29 21:02:00,54.9,48.5,30.00,NNW,338,0.0,0.0,79,0.00,,---,0.00,VWS V14.01,2013-07-30 04:02:00,
2013-07-29 21:03:00,54.9,48.5,30.00,NW,315,0.0,0.0,79,0.00,,---,0.00,VWS V14.01,2013-07-30 04:03:00,
2013-07-29 21:09:00,55.0,49.0,30.00,NNW,338,0.0,1.1,80,0.00,,---,0.00,VWS V14.01,2013-07-30 04:09:00,
2013-07-29 21:10:00,55.0,49.0,30.00,NNW,338,0.0,1.1,80,0.00,,---,0.00,VWS V14.01,2013-07-30 04:10:00,
2013-07-29 21:14:00,54.9,48.8,30.00,NNW,338,0.0,0.0,80,0.00,,---,0.00,VWS V14.01,2013-07-30 04:14:00,
2013-07-29 21:19:00,54.9,49.2,30.00,NW,315,0.0,0.0,81,0.00,,---,0.00,VWS V14.01,2013-07-30 04:19:00,
2013-07-29 21:20:00,54.9,49.2,30.00,NW,315,0.0,0.0,81,0.00,,---,0.00,VWS V14.01,2013-07-30 04:20:00,
2013-07-29 21:25:00,54.7,49.0,30.00,NW,315,0.9,0.9,81,0.00,,---,0.00,VWS V14.01,2013-07-30 04:25:00,
2013-07-29 21:30:00,54.9,49.2,30.00,NNW,338,0.0,0.9,81,0.00,,---,0.00,VWS V14.01,2013-07-30 04:30:00,
2013-07-29 21:35:00,54.9,49.5,30.03,WNW,292,0.0,0.0,82,0.00,,---,0.00,VWS V14.01,2013-07-30 04:35:00,
2013-07-29 21:40:00,54.9,49.5,30.03,WNW,292,0.0,0.0,82,0.00,,---,0.00,VWS V14.01,2013-07-30 04:40:00,
2013-07-29 21:45:00,54.9,49.5,30.03,WNW,292,0.0,0.0,82,0.00,,---,0.00,VWS V14.01,2013-07-30 04:45:00,
2013-07-29 21:50:00,54.9,49.8,30.03,NW,315,0.0,0.0,83,0.00,,---,0.00,VWS V14.01,2013-07-30 04:50:00,
2013-07-29 21:51:00,54.9,49.8,30.03,NW,315,0.0,0.0,83,0.00,,---,0.00,VWS V14.01,2013-07-30 04:51:00,
2013-07-29 21:56:00,54.9,49.8,30.03,NNW,338,0.0,2.2,83,0.00,,---,0.00,VWS V14.01,2013-07-30 04:56:00,
2013-07-29 22:00:00,55.0,50.0,30.03,NNW,338,0.0,2.2,83,0.00,,---,0.00,VWS V14.01,2013-07-30 05:00:00,
2013-07-29 22:01:00,55.0,50.0,30.03,NNW,338,0.0,0.0,83,0.00,,---,0.00,VWS V14.01,2013-07-30 05:01:00,
2013-07-29 22:06:00,55.0,50.0,30.03,NNW,338,0.0,0.0,83,0.00,,---,0.00,VWS V14.01,2013-07-30 05:06:00,
2013-07-29 22:10:00,55.0,50.0,30.03,NNW,338,0.0,0.0,83,0.00,,---,0.00,VWS V14.01,2013-07-30 05:10:00,
2013-07-29 22:12:00,55.0,50.0,30.03,NNW,338,0.0,0.0,83,0.00,,---,0.00,VWS V14.01,2013-07-30 05:12:00,
2013-07-29 22:17:00,55.2,50.2,30.03,NNW,338,0.0,0.0,83,0.00,,---,0.00,VWS V14.01,2013-07-30 05:17:00,
2013-07-29 22:20:00,55.2,50.2,30.03,NW,315,0.0,0.0,83,0.00,,---,0.00,VWS V14.01,2013-07-30 05:20:00,
2013-07-29 22:22:00,55.2,50.2,30.03,NW,315,1.1,1.1,83,0.00,,---,0.00,VWS V14.01,2013-07-30 05:22:00,
2013-07-29 22:28:00,55.0,50.3,30.03,NW,315,0.0,1.1,84,0.00,,---,0.00,VWS V14.01,2013-07-30 05:28:00,
2013-07-29 22:30:00,55.0,50.3,30.03,NW,315,0.0,1.1,84,0.00,,---,0.00,VWS V14.01,2013-07-30 05:30:00,
2013-07-29 22:33:00,54.9,50.1,30.03,NW,315,0.0,0.0,84,0.00,,---,0.00,VWS V14.01,2013-07-30 05:33:00,
2013-07-29 22:38:00,55.0,50.3,30.03,NW,315,0.0,2.0,84,0.00,,---,0.00,VWS V14.01,2013-07-30 05:38:00,
2013-07-29 22:40:00,55.0,50.3,30.03,NNW,338,0.0,2.0,84,0.00,,---,0.00,VWS V14.01,2013-07-30 05:40:00,
2013-07-29 22:43:00,55.0,50.3,30.03,NNW,338,0.0,1.6,84,0.00,,---,0.00,VWS V14.01,2013-07-30 05:43:00,
2013-07-29 22:49:00,55.0,50.3,30.03,NNW,338,0.0,1.6,84,0.00,,---,0.00,VWS V14.01,2013-07-30 05:49:00,
2013-07-29 22:50:00,55.0,50.3,30.03,NNW,338,1.6,2.2,84,0.00,,---,0.00,VWS V14.01,2013-07-30 05:50:00,
2013-07-29 22:54:00,55.0,50.3,30.03,NNW,338,0.0,2.0,84,0.00,,---,0.00,VWS V14.01,2013-07-30 05:54:00,
2013-07-29 22:59:00,55.0,50.3,30.03,NNW,338,1.3,2.0,84,0.00,,---,0.00,VWS V14.01,2013-07-30 05:59:00,
2013-07-29 23:00:00,55.0,50.3,30.03,NNW,338,1.3,2.0,84,0.00,,---,0.00,VWS V14.01,2013-07-30 06:00:00,
2013-07-29 23:04:00,55.0,50.3,30.03,NNW,338,0.0,2.5,84,0.00,,---,0.00,VWS V14.01,2013-07-30 06:04:00,
2013-07-29 23:10:00,55.2,50.8,30.03,North,0,0.0,2.5,85,0.00,,---,0.00,VWS V14.01,2013-07-30 06:10:00,
2013-07-29 23:15:00,55.2,50.8,30.03,North,0,0.0,1.6,85,0.00,,---,0.00,VWS V14.01,2013-07-30 06:15:00,
2013-07-29 23:20:00,55.2,50.8,30.03,NNW,338,0.0,1.6,85,0.00,,---,0.00,VWS V14.01,2013-07-30 06:20:00,
2013-07-29 23:25:00,55.2,50.8,30.03,NNW,338,0.0,0.9,85,0.00,,---,0.00,VWS V14.01,2013-07-30 06:25:00,
2013-07-29 23:30:00,55.2,50.8,30.03,NNW,338,0.0,0.9,85,0.00,,---,0.00,VWS V14.01,2013-07-30 06:30:00,
2013-07-29 23:31:00,55.4,51.0,30.03,NNW,338,0.0,0.0,85,0.00,,---,0.00,VWS V14.01,2013-07-30 06:31:00,
2013-07-29 23:36:00,55.4,51.3,30.03,North,0,0.0,0.0,86,0.00,,---,0.00,VWS V14.01,2013-07-30 06:36:00,
2013-07-29 23:40:00,55.4,51.3,30.03,NNW,338,0.0,1.3,86,0.00,,---,0.00,VWS V14.01,2013-07-30 06:40:00,
2013-07-29 23:41:00,55.4,51.3,30.03,NNW,338,0.0,0.0,86,0.00,,---,0.00,VWS V14.01,2013-07-30 06:41:00,
2013-07-29 23:47:00,55.4,51.3,30.03,WNW,292,0.0,0.0,86,0.00,,---,0.00,VWS V14.01,2013-07-30 06:47:00,
2013-07-29 23:50:00,55.4,51.3,30.03,NNW,338,0.0,0.0,86,0.00,,---,0.00,VWS V14.01,2013-07-30 06:50:00,
2013-07-29 23:53:00,55.4,51.3,30.03,NNW,338,0.0,0.0,86,0.00,,---,0.00,VWS V14.01,2013-07-30 06:53:00,
2013-07-29 23:58:00,55.4,51.6,30.03,North,0,0.0,0.0,87,0.00,,---,0.00,VWS V14.01,2013-07-30 06:58:00,